createdAt,value
2016-06-20T00:00:43.134Z,99.99
2016-06-20T00:01:43.168Z,99.99
2016-06-20T00:02:42.594Z,99.99
2016-06-20T00:03:42.628Z,99.99
2016-06-20T00:04:42.678Z,99.99
2016-06-20T00:05:43.323Z,99.99
2016-06-20T00:06:42.747Z,99.99
2016-06-20T00:07:43.376Z,99.99
2016-06-20T00:08:42.817Z,99.99
2016-06-20T00:09:42.837Z,99.99
2016-06-20T00:10:42.871Z,99.99
2016-06-20T00:11:43.515Z,99.99
2016-06-20T00:12:42.956Z,99.99
2016-06-20T00:13:43.584Z,99.99
2016-06-20T00:14:43.010Z,99.99
2016-06-20T00:15:43.061Z,99.99
2016-06-20T00:16:43.095Z,99.99
2016-06-20T00:17:43.114Z,99.99
2016-06-20T00:18:43.774Z,99.99
2016-06-20T00:19:43.809Z,99.99
2016-06-20T00:20:43.828Z,99.99
2016-06-20T00:21:43.268Z,99.99
2016-06-20T00:22:43.913Z,99.99
2016-06-20T00:23:43.322Z,99.99
2016-06-20T00:24:43.373Z,99.99
2016-06-20T00:25:43.407Z,99.99
2016-06-20T00:26:44.066Z,99.99
2016-06-20T00:27:44.071Z,99.99
2016-06-20T00:28:43.512Z,99.99
2016-06-20T00:29:44.156Z,99.99
2016-06-20T00:30:44.190Z,99.99
2016-06-20T00:31:43.631Z,99.99
2016-06-20T00:32:44.260Z,99.99
2016-06-20T00:33:43.685Z,99.99
2016-06-20T00:34:44.313Z,99.99
2016-06-20T00:35:43.755Z,99.99
2016-06-20T00:36:43.790Z,99.99
2016-06-20T00:37:44.434Z,99.99
2016-06-20T00:38:44.452Z,99.99
2016-06-20T00:39:44.503Z,99.99
2016-06-20T00:40:44.522Z,99.99
2016-06-20T00:41:43.962Z,99.99
2016-06-20T00:42:44.607Z,99.99
2016-06-20T00:43:44.642Z,99.99
2016-06-20T00:44:44.067Z,99.99
2016-06-20T00:45:44.102Z,99.99
2016-06-20T00:46:44.136Z,99.99
2016-06-20T00:47:44.781Z,99.99
2016-06-20T00:48:44.815Z,99.99
2016-06-20T00:49:44.851Z,99.99
2016-06-20T00:50:44.884Z,99.99
2016-06-20T00:51:44.310Z,99.99
2016-06-20T00:52:44.953Z,99.99
2016-06-20T00:53:44.379Z,99.99
2016-06-20T00:54:45.023Z,99.99
2016-06-20T00:55:44.496Z,99.99
2016-06-20T00:56:44.483Z,99.99
2016-06-20T00:57:44.518Z,99.99
2016-06-20T00:58:44.552Z,99.99
2016-06-20T00:59:45.197Z,99.99
2016-06-20T01:00:45.232Z,99.99
2016-06-20T01:01:45.267Z,99.99
2016-06-20T01:02:45.301Z,99.99
2016-06-20T01:03:45.336Z,99.99
2016-06-20T01:04:45.370Z,99.99
2016-06-20T01:05:44.796Z,99.99
2016-06-20T01:06:44.830Z,99.99
2016-06-20T01:07:44.866Z,99.99
2016-06-20T01:08:45.509Z,99.99
2016-06-20T01:09:44.950Z,99.99
2016-06-20T01:10:45.594Z,99.99
2016-06-20T01:11:45.005Z,99.99
2016-06-20T01:12:45.664Z,99.99
2016-06-20T01:13:45.683Z,99.99
2016-06-20T01:14:45.108Z,99.99
2016-06-20T01:15:45.753Z,99.99
2016-06-20T01:16:45.787Z,99.99
2016-06-20T01:17:45.822Z,99.99
2016-06-20T01:18:45.856Z,99.99
2016-06-20T01:19:45.282Z,99.99
2016-06-20T01:20:45.317Z,99.99
2016-06-20T01:21:45.351Z,99.99
2016-06-20T01:22:45.995Z,99.99
2016-06-20T01:23:45.421Z,99.99
2016-06-20T01:24:46.065Z,99.99
2016-06-20T01:25:45.490Z,99.99
2016-06-20T01:26:45.524Z,99.99
2016-06-20T01:27:45.560Z,99.99
2016-06-20T01:28:46.204Z,99.99
2016-06-20T01:29:46.239Z,99.99
2016-06-20T01:30:45.663Z,99.99
2016-06-20T01:31:46.308Z,99.99
2016-06-20T01:32:45.734Z,99.99
2016-06-20T01:33:46.378Z,99.99
2016-06-20T01:34:46.412Z,99.99
2016-06-20T01:35:45.837Z,99.99
2016-06-20T01:36:45.888Z,99.99
2016-06-20T01:37:45.907Z,99.99
2016-06-20T01:38:46.551Z,99.99
2016-06-20T01:39:45.977Z,99.99
2016-06-20T01:40:46.011Z,99.99
2016-06-20T01:41:46.655Z,99.99
2016-06-20T01:42:46.080Z,99.99
2016-06-20T01:43:46.115Z,99.99
2016-06-20T01:44:46.759Z,99.99
2016-06-20T01:45:46.794Z,99.99
2016-06-20T01:46:46.218Z,99.99
2016-06-20T01:47:46.254Z,99.99
2016-06-20T01:48:46.897Z,99.99
2016-06-20T01:49:46.964Z,99.99
2016-06-20T01:50:46.967Z,99.99
2016-06-20T01:51:46.393Z,99.99
2016-06-20T01:52:46.427Z,99.99
2016-06-20T01:53:47.072Z,99.99
2016-06-20T01:54:47.107Z,99.99
2016-06-20T01:55:46.532Z,99.99
2016-06-20T01:56:47.175Z,99.99
2016-06-20T01:57:47.211Z,99.99
2016-06-20T01:58:46.635Z,99.99
2016-06-20T01:59:46.671Z,99.99
2016-06-20T02:00:47.314Z,99.99
2016-06-20T02:01:46.739Z,99.99
2016-06-20T02:02:47.368Z,99.99
2016-06-20T02:03:46.809Z,99.99
2016-06-20T02:04:46.843Z,99.99
2016-06-20T02:05:46.878Z,99.99
2016-06-20T02:06:47.507Z,99.99
2016-06-20T02:07:47.557Z,99.99
2016-06-20T02:08:46.983Z,99.99
2016-06-20T02:09:47.627Z,99.99
2016-06-20T02:10:47.646Z,99.99
2016-06-20T02:11:47.087Z,99.99
2016-06-20T02:12:47.122Z,99.99
2016-06-20T02:13:47.766Z,99.99
2016-06-20T02:14:47.785Z,99.99
2016-06-20T02:15:47.819Z,99.99
2016-06-20T02:16:47.260Z,99.99
2016-06-20T02:17:47.326Z,99.99
2016-06-20T02:18:47.314Z,99.99
2016-06-20T02:19:47.364Z,99.99
2016-06-20T02:20:47.399Z,99.99
2016-06-20T02:21:48.027Z,99.99
2016-06-20T02:22:47.468Z,99.99
2016-06-20T02:23:48.097Z,99.99
2016-06-20T02:24:47.522Z,99.99
2016-06-20T02:25:48.166Z,99.99
2016-06-20T02:26:48.201Z,99.99
2016-06-20T02:27:48.235Z,99.99
2016-06-20T02:28:48.302Z,99.99
2016-06-20T02:29:48.306Z,99.99
2016-06-20T02:30:48.340Z,99.99
2016-06-20T02:31:47.765Z,99.99
2016-06-20T02:32:47.800Z,99.99
2016-06-20T02:33:48.444Z,99.99
2016-06-20T02:34:47.869Z,99.99
2016-06-20T02:35:48.513Z,99.99
2016-06-20T02:36:48.548Z,99.99
2016-06-20T02:37:47.974Z,99.99
2016-06-20T02:38:48.617Z,99.99
2016-06-20T02:39:48.651Z,99.99
2016-06-20T02:40:48.687Z,99.99
2016-06-20T02:41:48.722Z,99.99
2016-06-20T02:42:48.147Z,99.99
2016-06-20T02:43:48.791Z,99.99
2016-06-20T02:44:48.826Z,99.99
2016-06-20T02:45:48.267Z,99.99
2016-06-20T02:46:48.286Z,99.99
2016-06-20T02:47:48.320Z,99.99
2016-06-20T02:48:48.965Z,99.99
2016-06-20T02:49:49.000Z,99.99
2016-06-20T02:50:49.018Z,99.99
2016-06-20T02:51:48.459Z,99.99
2016-06-20T02:52:49.104Z,99.99
2016-06-20T02:53:48.529Z,99.99
2016-06-20T02:54:48.547Z,99.99
2016-06-20T02:55:48.582Z,99.99
2016-06-20T02:56:49.247Z,99.99
2016-06-20T02:57:48.665Z,99.99
2016-06-20T02:58:49.318Z,99.99
2016-06-20T02:59:48.751Z,99.99
2016-06-20T03:00:48.809Z,99.99
2016-06-20T03:01:49.444Z,99.99
2016-06-20T03:02:49.482Z,99.99
2016-06-20T03:03:48.910Z,99.99
2016-06-20T03:04:49.558Z,99.99
2016-06-20T03:05:49.595Z,99.99
2016-06-20T03:06:49.633Z,99.99
2016-06-20T03:07:49.668Z,99.99
2016-06-20T03:08:49.703Z,99.99
2016-06-20T03:09:49.739Z,99.99
2016-06-20T03:10:49.776Z,99.99
2016-06-20T03:11:49.201Z,99.99
2016-06-20T03:12:49.236Z,99.99
2016-06-20T03:13:49.272Z,99.99
2016-06-20T03:14:49.917Z,99.99
2016-06-20T03:15:49.951Z,99.99
2016-06-20T03:16:49.392Z,99.99
2016-06-20T03:17:50.021Z,99.99
2016-06-20T03:18:49.447Z,99.99
2016-06-20T03:19:50.091Z,99.99
2016-06-20T03:20:49.518Z,99.99
2016-06-20T03:21:49.552Z,99.99
2016-06-20T03:22:49.587Z,99.99
2016-06-20T03:23:49.621Z,99.99
2016-06-20T03:24:50.250Z,99.99
2016-06-20T03:25:49.707Z,99.99
2016-06-20T03:26:50.336Z,99.99
2016-06-20T03:27:49.792Z,99.99
2016-06-20T03:28:49.795Z,99.99
2016-06-20T03:29:49.830Z,99.99
2016-06-20T03:30:49.849Z,99.99
2016-06-20T03:31:50.492Z,99.99
2016-06-20T03:32:50.527Z,99.99
2016-06-20T03:33:49.969Z,99.99
2016-06-20T03:34:50.003Z,99.99
2016-06-20T03:35:50.022Z,99.99
2016-06-20T03:36:50.073Z,99.99
2016-06-20T03:37:50.091Z,99.99
2016-06-20T03:38:50.142Z,99.99
2016-06-20T03:39:50.162Z,99.99
2016-06-20T03:40:50.196Z,99.99
2016-06-20T03:41:50.231Z,99.99
2016-06-20T03:42:50.266Z,99.99
2016-06-20T03:43:50.909Z,99.99
2016-06-20T03:44:50.960Z,99.99
2016-06-20T03:45:50.980Z,99.99
2016-06-20T03:46:51.013Z,99.99
2016-06-20T03:47:50.439Z,99.99
2016-06-20T03:48:50.473Z,99.99
2016-06-20T03:49:50.508Z,99.99
2016-06-20T03:50:50.543Z,99.99
2016-06-20T03:51:50.578Z,99.99
2016-06-20T03:52:50.612Z,99.99
2016-06-20T03:53:51.257Z,99.99
2016-06-20T03:54:51.291Z,99.99
2016-06-20T03:55:50.717Z,99.99
2016-06-20T03:56:50.751Z,99.99
2016-06-20T03:57:51.396Z,99.99
2016-06-20T03:58:51.430Z,99.99
2016-06-20T03:59:50.856Z,99.99
2016-06-20T04:00:50.906Z,99.99
2016-06-20T04:01:50.924Z,99.99
2016-06-20T04:02:51.553Z,99.99
2016-06-20T04:03:51.603Z,99.99
2016-06-20T04:04:51.029Z,99.99
2016-06-20T04:05:51.673Z,99.99
2016-06-20T04:06:51.098Z,99.99
2016-06-20T04:07:51.117Z,99.99
2016-06-20T04:08:51.152Z,99.99
2016-06-20T04:09:51.812Z,99.99
2016-06-20T04:10:51.238Z,99.99
2016-06-20T04:11:51.256Z,99.99
2016-06-20T04:12:51.900Z,99.99
2016-06-20T04:13:51.935Z,99.99
2016-06-20T04:14:51.970Z,99.99
2016-06-20T04:15:51.395Z,99.99
2016-06-20T04:16:52.055Z,99.99
2016-06-20T04:17:52.074Z,99.99
2016-06-20T04:18:51.499Z,99.99
2016-06-20T04:19:51.534Z,99.99
2016-06-20T04:20:52.179Z,99.99
2016-06-20T04:21:52.212Z,99.99
2016-06-20T04:22:51.638Z,99.99
2016-06-20T04:23:51.672Z,99.99
2016-06-20T04:24:52.317Z,99.99
2016-06-20T04:25:51.757Z,99.99
2016-06-20T04:26:51.777Z,99.99
2016-06-20T04:27:52.421Z,99.99
2016-06-20T04:28:51.846Z,99.99
2016-06-20T04:29:51.881Z,99.99
2016-06-20T04:30:51.916Z,99.99
2016-06-20T04:31:51.951Z,99.95
2016-06-20T04:32:52.001Z,99.66
2016-06-20T04:33:52.020Z,99.66
2016-06-20T04:34:52.663Z,99.18
2016-06-20T04:35:52.714Z,98.99
2016-06-20T04:36:52.733Z,98.13
2016-06-20T04:37:52.159Z,97.23
2016-06-20T04:38:52.802Z,93.74
2016-06-20T04:39:52.853Z,92.25
2016-06-20T04:40:52.872Z,90.06
2016-06-20T04:41:52.298Z,89.43
2016-06-20T04:42:52.348Z,86.8
2016-06-20T04:43:52.977Z,86.08
2016-06-20T04:44:53.026Z,85.02
2016-06-20T04:45:53.062Z,83.92
2016-06-20T04:46:52.487Z,82.86
2016-06-20T04:47:52.522Z,82.19
2016-06-20T04:48:52.556Z,81.85
2016-06-20T04:49:53.200Z,81.18
2016-06-20T04:50:52.626Z,81.56
2016-06-20T04:51:53.270Z,80.41
2016-06-20T04:52:52.694Z,80.32
2016-06-20T04:53:52.745Z,79.68
2016-06-20T04:54:53.374Z,78.82
2016-06-20T04:55:52.814Z,77.9
2016-06-20T04:56:52.849Z,77.51
2016-06-20T04:57:53.493Z,76.94
2016-06-20T04:58:53.528Z,76.65
2016-06-20T04:59:52.953Z,76.17
2016-06-20T05:00:53.614Z,76.02
2016-06-20T05:01:53.070Z,76.17
2016-06-20T05:02:53.074Z,75.45
2016-06-20T05:03:53.717Z,75.06
2016-06-20T05:04:53.752Z,74.96
2016-06-20T05:05:53.803Z,74.77
2016-06-20T05:06:53.228Z,74.33
2016-06-20T05:07:53.872Z,73.85
2016-06-20T05:08:53.313Z,73.46
2016-06-20T05:09:53.332Z,73.94
2016-06-20T05:10:53.976Z,73.27
2016-06-20T05:11:53.416Z,73.91
2016-06-20T05:12:54.061Z,73.85
2016-06-20T05:13:54.111Z,73.46
2016-06-20T05:14:54.130Z,73.56
2016-06-20T05:15:54.180Z,72.06
2016-06-20T05:16:54.216Z,71.33
2016-06-20T05:17:54.266Z,71.77
2016-06-20T05:18:53.691Z,71.19
2016-06-20T05:19:53.726Z,72.44
2016-06-20T05:20:53.761Z,73.18
2016-06-20T05:21:53.811Z,73.08
2016-06-20T05:22:54.454Z,72.89
2016-06-20T05:23:53.880Z,73.72
2016-06-20T05:24:54.539Z,73.52
2016-06-20T05:25:53.965Z,72.79
2016-06-20T05:26:54.015Z,72.34
2016-06-20T05:27:54.050Z,71.77
2016-06-20T05:28:54.694Z,70.81
2016-06-20T05:29:54.120Z,70.84
2016-06-20T05:30:54.170Z,71.52
2016-06-20T05:31:54.814Z,72.6
2016-06-20T05:32:54.864Z,74.43
2016-06-20T05:33:54.899Z,75.82
2016-06-20T05:34:54.965Z,77.9
2016-06-20T05:35:54.360Z,78.72
2016-06-20T05:36:54.410Z,80.16
2016-06-20T05:37:54.445Z,79.3
2016-06-20T05:38:54.479Z,77.29
2016-06-20T05:39:54.529Z,76.94
2016-06-20T05:40:55.174Z,75.31
2016-06-20T05:41:54.598Z,73.27
2016-06-20T05:42:55.243Z,72.89
2016-06-20T05:43:55.277Z,71.19
2016-06-20T05:44:54.718Z,70.65
2016-06-20T05:45:55.378Z,70.07
2016-06-20T05:46:55.413Z,69.15
2016-06-20T05:47:55.448Z,67.35
2016-06-20T05:48:54.888Z,66.49
2016-06-20T05:49:54.939Z,67.35
2016-06-20T05:50:54.958Z,67.26
2016-06-20T05:51:55.618Z,67.16
2016-06-20T05:52:55.043Z,66.2
2016-06-20T05:53:55.687Z,66.3
2016-06-20T05:54:55.737Z,66.68
2016-06-20T05:55:55.772Z,65.46
2016-06-20T05:56:55.213Z,67.93
2016-06-20T05:57:55.857Z,69.63
2016-06-20T05:58:55.298Z,71.33
2016-06-20T05:59:55.942Z,72.16
2016-06-20T06:00:56.008Z,72.89
2016-06-20T06:01:55.418Z,75.21
2016-06-20T06:02:55.453Z,77
2016-06-20T06:03:55.503Z,79.26
2016-06-20T06:04:56.147Z,80.22
2016-06-20T06:05:55.588Z,80.94
2016-06-20T06:06:55.639Z,82.48
2016-06-20T06:07:55.657Z,82.09
2016-06-20T06:08:55.692Z,81.81
2016-06-20T06:09:56.352Z,82.29
2016-06-20T06:10:56.386Z,81.81
2016-06-20T06:11:56.421Z,82.29
2016-06-20T06:12:56.471Z,81.71
2016-06-20T06:13:55.897Z,81.71
2016-06-20T06:14:55.931Z,81.81
2016-06-20T06:15:56.607Z,82.38
2016-06-20T06:16:56.627Z,82.48
2016-06-20T06:17:56.066Z,81.81
2016-06-20T06:18:56.712Z,81.71
2016-06-20T06:19:56.730Z,81.62
2016-06-20T06:20:56.187Z,82.29
2016-06-20T06:21:56.816Z,82.09
2016-06-20T06:22:56.850Z,82.29
2016-06-20T06:23:56.901Z,81.52
2016-06-20T06:24:56.935Z,81.43
2016-06-20T06:25:56.969Z,81.23
2016-06-20T06:26:56.411Z,81.27
2016-06-20T06:27:57.055Z,80.6
2016-06-20T06:28:57.215Z,79.64
2016-06-20T06:29:57.124Z,79.55
2016-06-20T06:30:57.159Z,79.74
2016-06-20T06:31:56.631Z,80.32
2016-06-20T06:32:57.244Z,79.93
2016-06-20T06:33:56.669Z,79.55
2016-06-20T06:34:57.313Z,79.16
2016-06-20T06:35:57.364Z,79.93
2016-06-20T06:36:57.382Z,79.45
2016-06-20T06:37:57.433Z,79.55
2016-06-20T06:38:57.467Z,80.22
2016-06-20T06:39:57.534Z,79.74
2016-06-20T06:40:57.552Z,80.79
2016-06-20T06:41:56.977Z,80.41
2016-06-20T06:42:57.028Z,79.45
2016-06-20T06:43:57.656Z,79.59
2016-06-20T06:44:57.099Z,79.74
2016-06-20T06:45:57.133Z,79.78
2016-06-20T06:46:57.777Z,78.82
2016-06-20T06:47:57.202Z,77.86
2016-06-20T06:48:57.237Z,78.15
2016-06-20T06:49:57.288Z,77.86
2016-06-20T06:50:57.931Z,78.34
2016-06-20T06:51:57.966Z,77.95
2016-06-20T06:52:58.001Z,77.04
2016-06-20T06:53:57.426Z,76.94
2016-06-20T06:54:58.086Z,76.04
2016-06-20T06:55:57.511Z,76.42
2016-06-20T06:56:57.546Z,76.23
2016-06-20T06:57:58.190Z,76.27
2016-06-20T06:58:57.615Z,75.89
2016-06-20T06:59:57.665Z,76.27
2016-06-20T07:00:57.701Z,75.89
2016-06-20T07:01:58.345Z,75.12
2016-06-20T07:02:57.769Z,76.32
2016-06-20T07:03:58.429Z,76.07
2016-06-20T07:04:58.449Z,76.23
2016-06-20T07:05:58.499Z,77.04
2016-06-20T07:06:58.549Z,76.17
2016-06-20T07:07:57.975Z,75.6
2016-06-20T07:08:58.604Z,75.31
2016-06-20T07:09:58.638Z,74.93
2016-06-20T07:10:58.688Z,75.12
2016-06-20T07:11:58.723Z,75.89
2016-06-20T07:12:58.148Z,74.83
2016-06-20T07:13:58.792Z,76.17
2016-06-20T07:14:58.217Z,75.21
2016-06-20T07:15:58.267Z,75.31
2016-06-20T07:16:58.318Z,74.19
2016-06-20T07:17:58.947Z,74.01
2016-06-20T07:18:58.997Z,74.1
2016-06-20T07:19:59.016Z,73.62
2016-06-20T07:20:59.066Z,75.15
2016-06-20T07:21:59.101Z,73.46
2016-06-20T07:22:58.527Z,73.85
2016-06-20T07:23:59.171Z,72.89
2016-06-20T07:24:59.220Z,72.5
2016-06-20T07:25:59.255Z,72.69
2016-06-20T07:26:59.290Z,72.99
2016-06-20T07:27:58.715Z,73.56
2016-06-20T07:28:59.376Z,72.6
2016-06-20T07:29:59.400Z,71.55
2016-06-20T07:30:58.849Z,70.97
2016-06-20T07:31:59.500Z,71.45
2016-06-20T07:32:59.543Z,71.35
2016-06-20T07:33:59.600Z,70.72
2016-06-20T07:34:59.638Z,70.14
2016-06-20T07:35:59.675Z,70.14
2016-06-20T07:36:59.118Z,69.85
2016-06-20T07:37:59.155Z,69.56
2016-06-20T07:38:59.817Z,69.46
2016-06-20T07:39:59.838Z,69.66
2016-06-20T07:40:59.265Z,68.63
2016-06-20T07:41:59.909Z,67.29
2016-06-20T07:42:59.351Z,67.48
2016-06-20T07:43:59.387Z,67.29
2016-06-20T07:44:59.438Z,66.94
2016-06-20T07:45:59.473Z,65.63
2016-06-20T07:46:59.539Z,62.64
2016-06-20T07:47:59.544Z,61.9
2016-06-20T07:49:00.203Z,61
2016-06-20T07:49:59.629Z,59.65
2016-06-20T07:50:59.664Z,57.49
2016-06-20T07:51:59.728Z,56.52
2016-06-20T07:52:59.765Z,57.2
2016-06-20T07:53:59.782Z,56.84
2016-06-20T07:55:00.427Z,56.07
2016-06-20T07:55:59.868Z,54.65
2016-06-20T07:56:59.903Z,53.97
2016-06-20T07:57:59.954Z,53.55
2016-06-20T07:58:59.988Z,51.51
2016-06-20T08:00:00.039Z,51.83
2016-06-20T08:01:00.682Z,51.54
2016-06-20T08:02:00.732Z,51.28
2016-06-20T08:03:00.158Z,51.76
2016-06-20T08:04:00.802Z,50.79
2016-06-20T08:05:00.962Z,49.85
2016-06-20T08:06:00.294Z,49.1
2016-06-20T08:07:00.938Z,50.52
2016-06-20T08:08:00.972Z,50.7
2016-06-20T08:09:01.023Z,50.79
2016-06-20T08:10:01.073Z,50.4
2016-06-20T08:11:01.124Z,49.44
2016-06-20T08:12:00.548Z,49.54
2016-06-20T08:13:00.598Z,50.33
2016-06-20T08:14:00.665Z,49.56
2016-06-20T08:15:00.683Z,49.56
2016-06-20T08:16:00.734Z,48.97
2016-06-20T08:17:00.785Z,48.03
2016-06-20T08:18:01.569Z,48.52
2016-06-20T08:19:01.479Z,50.72
2016-06-20T08:20:00.920Z,49.54
2016-06-20T08:21:01.564Z,49.95
2016-06-20T08:22:01.614Z,50.33
2016-06-20T08:23:01.665Z,52.63
2016-06-20T08:24:01.089Z,52.02
2016-06-20T08:25:01.750Z,52.41
2016-06-20T08:26:01.800Z,52.97
2016-06-20T08:27:01.225Z,53.03
2016-06-20T08:28:01.900Z,53.49
2016-06-20T08:29:01.325Z,54.36
2016-06-20T08:30:01.970Z,54.36
2016-06-20T08:31:01.411Z,54.46
2016-06-20T08:32:01.461Z,53.78
2016-06-20T08:33:02.105Z,52.33
2016-06-20T08:34:01.547Z,53.11
2016-06-20T08:35:01.597Z,53.66
2016-06-20T08:36:02.241Z,53.08
2016-06-20T08:37:02.291Z,53.63
2016-06-20T08:38:01.732Z,53.34
2016-06-20T08:39:01.766Z,52.59
2016-06-20T08:40:02.427Z,53.05
2016-06-20T08:41:01.868Z,52.67
2016-06-20T08:42:01.901Z,52.01
2016-06-20T08:43:02.546Z,52.69
2016-06-20T08:44:02.597Z,52.4
2016-06-20T08:45:02.037Z,53.73
2016-06-20T08:46:02.088Z,53.56
2016-06-20T08:47:02.716Z,54.62
2016-06-20T08:48:02.188Z,53.08
2016-06-20T08:49:02.208Z,53.44
2016-06-20T08:50:02.259Z,53.53
2016-06-20T08:51:02.293Z,53.73
2016-06-20T08:52:02.953Z,53.83
2016-06-20T08:53:03.019Z,53.7
2016-06-20T08:54:03.037Z,53.61
2016-06-20T08:55:02.463Z,53.39
2016-06-20T08:56:03.123Z,53.39
2016-06-20T08:57:03.173Z,54.35
2016-06-20T08:58:03.207Z,54.44
2016-06-20T08:59:03.243Z,53.58
2016-06-20T09:00:03.293Z,53.09
2016-06-20T09:01:03.327Z,53.05
2016-06-20T09:02:02.768Z,52.21
2016-06-20T09:03:03.429Z,51.63
2016-06-20T09:04:02.853Z,52.59
2016-06-20T09:05:03.514Z,52.79
2016-06-20T09:06:03.547Z,53.08
2016-06-20T09:07:03.599Z,52.5
2016-06-20T09:08:03.024Z,52.86
2016-06-20T09:09:03.699Z,53.08
2016-06-20T09:10:03.124Z,53.08
2016-06-20T09:11:03.769Z,54.18
2016-06-20T09:12:03.835Z,55.44
2016-06-20T09:13:03.245Z,56.18
2016-06-20T09:14:03.294Z,55.7
2016-06-20T09:15:03.938Z,55.6
2016-06-20T09:16:03.989Z,56.09
2016-06-20T09:17:03.414Z,56.85
2016-06-20T09:18:03.464Z,56.66
2016-06-20T09:19:03.499Z,56.37
2016-06-20T09:20:03.549Z,55.89
2016-06-20T09:21:04.194Z,55.22
2016-06-20T09:22:04.244Z,54.74
2016-06-20T09:23:04.279Z,55.15
2016-06-20T09:24:04.516Z,54.4
2016-06-20T09:25:04.363Z,54.4
2016-06-20T09:26:03.804Z,54.72
2016-06-20T09:27:03.840Z,53.37
2016-06-20T09:28:04.499Z,53.11
2016-06-20T09:29:04.533Z,52.45
2016-06-20T09:30:04.584Z,50.74
2016-06-20T09:31:04.618Z,50.84
2016-06-20T09:32:04.669Z,51.59
2016-06-20T09:33:04.095Z,52.14
2016-06-20T09:34:04.753Z,53.3
2016-06-20T09:35:04.179Z,53.66
2016-06-20T09:36:04.230Z,54.33
2016-06-20T09:37:04.280Z,54.82
2016-06-20T09:38:04.924Z,54.82
2016-06-20T09:39:04.959Z,54.53
2016-06-20T09:40:05.009Z,54.82
2016-06-20T09:41:04.435Z,54.33
2016-06-20T09:42:04.484Z,54.31
2016-06-20T09:43:04.535Z,54.33
2016-06-20T09:44:04.571Z,54.33
2016-06-20T09:45:04.652Z,54.79
2016-06-20T09:46:04.671Z,55.36
2016-06-20T09:47:05.315Z,54.53
2016-06-20T09:48:04.741Z,54.62
2016-06-20T09:49:04.791Z,55.2
2016-06-20T09:50:04.841Z,56.04
2016-06-20T09:51:05.484Z,55.78
2016-06-20T09:52:05.535Z,55.59
2016-06-20T09:53:04.960Z,55.4
2016-06-20T09:54:05.620Z,55.68
2016-06-20T09:55:05.670Z,55.76
2016-06-20T09:56:05.096Z,56.81
2016-06-20T09:57:05.771Z,56.62
2016-06-20T09:58:05.790Z,56.72
2016-06-20T09:59:05.825Z,56.81
2016-06-20T10:00:05.266Z,57.01
2016-06-20T10:01:05.332Z,56.91
2016-06-20T10:02:05.350Z,56.88
2016-06-20T10:03:05.401Z,58.04
2016-06-20T10:04:06.045Z,57.29
2016-06-20T10:05:06.096Z,57.97
2016-06-20T10:06:06.131Z,58.65
2016-06-20T10:07:06.181Z,58.33
2016-06-20T10:08:05.607Z,57.87
2016-06-20T10:09:06.266Z,58.65
2016-06-20T10:10:06.301Z,58.36
2016-06-20T10:11:06.335Z,57.97
2016-06-20T10:12:05.777Z,58.75
2016-06-20T10:13:06.436Z,58.45
2016-06-20T10:14:05.861Z,58.36
2016-06-20T10:15:05.895Z,57.78
2016-06-20T10:16:06.572Z,57.42
2016-06-20T10:17:05.997Z,58.75
2016-06-20T10:18:06.063Z,57.71
2016-06-20T10:19:06.082Z,58.1
2016-06-20T10:20:06.116Z,57.62
2016-06-20T10:21:06.776Z,56.65
2016-06-20T10:22:06.217Z,56.74
2016-06-20T10:23:06.862Z,57.04
2016-06-20T10:24:06.912Z,56.94
2016-06-20T10:25:06.946Z,57.42
2016-06-20T10:26:06.434Z,57.04
2016-06-20T10:27:06.422Z,56.58
2016-06-20T10:28:07.065Z,57.04
2016-06-20T10:29:06.507Z,57.32
2016-06-20T10:30:07.151Z,56.1
2016-06-20T10:31:07.201Z,56.13
2016-06-20T10:32:07.237Z,55.77
2016-06-20T10:33:07.286Z,54.8
2016-06-20T10:34:07.353Z,55.29
2016-06-20T10:35:07.372Z,56.15
2016-06-20T10:36:07.422Z,56.54
2016-06-20T10:37:07.472Z,56.83
2016-06-20T10:38:07.507Z,57.19
2016-06-20T10:39:06.948Z,56.45
2016-06-20T10:40:06.998Z,54.93
2016-06-20T10:41:07.657Z,56.67
2016-06-20T10:42:07.692Z,55.87
2016-06-20T10:43:07.118Z,56.41
2016-06-20T10:44:07.778Z,56.03
2016-06-20T10:45:07.202Z,57.21
2016-06-20T10:46:07.253Z,58.54
2016-06-20T10:47:07.914Z,58.64
2016-06-20T10:48:07.338Z,59.19
2016-06-20T10:49:07.389Z,60.64
2016-06-20T10:50:08.033Z,60.31
2016-06-20T10:51:08.084Z,60.89
2016-06-20T10:52:07.509Z,61.28
2016-06-20T10:53:08.168Z,61.25
2016-06-20T10:54:07.609Z,62.6
2016-06-20T10:55:07.644Z,62.89
2016-06-20T10:56:08.304Z,62.18
2016-06-20T10:57:07.744Z,63.44
2016-06-20T10:58:08.389Z,63.63
2016-06-20T10:59:08.423Z,64.66
2016-06-20T11:00:07.864Z,64.95
2016-06-20T11:01:07.899Z,64.76
2016-06-20T11:02:08.559Z,65.05
2016-06-20T11:03:08.609Z,65.33
2016-06-20T11:04:08.643Z,65.72
2016-06-20T11:05:08.694Z,64.66
2016-06-20T11:06:08.729Z,63.73
2016-06-20T11:07:08.764Z,64.76
2016-06-20T11:08:08.814Z,65.08
2016-06-20T11:09:08.864Z,65.08
2016-06-20T11:10:08.899Z,64.69
2016-06-20T11:11:08.950Z,64.82
2016-06-20T11:12:08.984Z,64.92
2016-06-20T11:13:09.018Z,65.01
2016-06-20T11:14:08.460Z,65.17
2016-06-20T11:15:09.103Z,64.63
2016-06-20T11:16:09.154Z,65.78
2016-06-20T11:17:08.580Z,66.27
2016-06-20T11:18:08.630Z,66.52
2016-06-20T11:19:08.664Z,66.91
2016-06-20T11:20:08.715Z,67.88
2016-06-20T11:21:09.437Z,67.88
2016-06-20T11:22:09.410Z,68.16
2016-06-20T11:23:08.866Z,68.65
2016-06-20T11:24:09.495Z,69.23
2016-06-20T11:25:09.529Z,68.74
2016-06-20T11:26:09.564Z,68.45
2016-06-20T11:27:09.598Z,68.74
2016-06-20T11:28:09.039Z,68.74
2016-06-20T11:29:09.699Z,68.8
2016-06-20T11:30:09.140Z,68.26
2016-06-20T11:31:09.175Z,67.4
2016-06-20T11:32:09.819Z,68.16
2016-06-20T11:33:09.259Z,67.68
2016-06-20T11:34:09.294Z,68.45
2016-06-20T11:35:09.344Z,68.04
2016-06-20T11:36:09.989Z,68.8
2016-06-20T11:37:10.040Z,69.29
2016-06-20T11:38:10.121Z,68.99
2016-06-20T11:39:09.514Z,69.29
2016-06-20T11:40:10.143Z,69.19
2016-06-20T11:41:10.193Z,69.96
2016-06-20T11:42:10.244Z,69.57
2016-06-20T11:43:10.295Z,68.99
2016-06-20T11:44:10.314Z,68.45
2016-06-20T11:45:10.364Z,67.78
2016-06-20T11:46:10.399Z,67.4
2016-06-20T11:47:09.839Z,67
2016-06-20T11:48:09.875Z,67.58
2016-06-20T11:49:10.534Z,67.68
2016-06-20T11:50:10.569Z,68.07
2016-06-20T11:51:10.603Z,67.97
2016-06-20T11:52:10.653Z,68.65
2016-06-20T11:53:10.687Z,68.35
2016-06-20T11:54:10.754Z,68.35
2016-06-20T11:55:10.774Z,68.35
2016-06-20T11:56:10.214Z,68.35
2016-06-20T11:57:10.249Z,68.16
2016-06-20T11:58:10.909Z,68.45
2016-06-20T12:11:25.013Z,68.32
2016-06-20T12:11:47.154Z,67.49
2016-06-20T12:12:47.800Z,67.58
2016-06-20T12:13:47.850Z,67.58
2016-06-20T12:14:47.275Z,67.2
2016-06-20T12:15:47.920Z,66.82
2016-06-20T12:16:47.361Z,67.1
2016-06-20T12:17:48.005Z,66.82
2016-06-20T12:18:48.055Z,66.72
2016-06-20T12:19:47.528Z,66.52
2016-06-20T12:20:48.141Z,66.62
2016-06-20T12:21:48.176Z,66.82
2016-06-20T12:22:48.242Z,66.62
2016-06-20T12:23:48.261Z,66.17
2016-06-20T12:24:48.296Z,66.43
2016-06-20T12:25:48.346Z,67
2016-06-20T12:26:48.396Z,67.3
2016-06-20T12:27:48.431Z,67.36
2016-06-20T12:28:48.465Z,67.26
2016-06-20T12:29:48.516Z,67.1
2016-06-20T12:30:47.941Z,67.74
2016-06-20T12:31:48.585Z,68.13
2016-06-20T12:32:48.026Z,67.65
2016-06-20T12:33:48.671Z,67.3
2016-06-20T12:34:48.111Z,67.2
2016-06-20T12:35:48.146Z,66.59
2016-06-20T12:36:48.807Z,67.55
2016-06-20T12:37:48.247Z,67.84
2016-06-20T12:38:48.891Z,67.46
2016-06-20T12:39:48.926Z,68.04
2016-06-20T12:40:48.366Z,68.13
2016-06-20T12:41:48.401Z,67.84
2016-06-20T12:42:48.435Z,67.26
2016-06-20T12:43:48.487Z,67.55
2016-06-20T12:44:48.521Z,68.42
2016-06-20T12:45:49.165Z,68.42
2016-06-20T12:46:49.215Z,68.71
2016-06-20T12:47:49.250Z,68.99
2016-06-20T12:48:49.301Z,69.29
2016-06-20T12:49:49.335Z,69.19
2016-06-20T12:50:49.385Z,68.23
2016-06-20T12:51:48.811Z,68.23
2016-06-20T12:52:49.455Z,67.78
2016-06-20T12:53:49.536Z,67.2
2016-06-20T12:54:49.539Z,67.4
2016-06-20T12:55:49.590Z,66.75
2016-06-20T12:56:49.625Z,66.27
2016-06-20T12:57:49.675Z,66.36
2016-06-20T12:58:49.100Z,66.82
2016-06-20T12:59:49.792Z,66.94
2016-06-20T13:00:49.201Z,66.94
2016-06-20T13:01:49.221Z,66.46
2016-06-20T13:02:49.880Z,65.5
2016-06-20T13:03:49.914Z,65.82
2016-06-20T13:04:49.949Z,66.4
2016-06-20T13:05:50.000Z,66.01
2016-06-20T13:06:50.035Z,65.72